Terminal Aerodrome Forecast
Issued by NWS Cleveland, OH

Home | Current Version | Previous Version | Text Only | Print | Product List | Glossary On
Versions: 1 2 3 4 5 6 7 8 9 10 11 12 13 14 15 16 17 18 19 20 21 22
911
FTUS41 KCLE 271139
TAFTOL
TAF
KTOL 271139Z 2712/2812 23007KT P6SM OVC015
     FM271700 24007KT P6SM BKN025
     FM271900 24007KT P6SM BKN050
     FM272300 VRB03KT P6SM OVC100
     FM280400 04003KT 5SM -RA OVC012
     FM280600 02007KT 3SM -RA BR OVC007=

USA.gov is the U.S. government's official web portal to all federal, state and local government web resources and services.